createdAt,value
2017-06-27T00:01:54.987Z,3.83
2017-06-27T00:04:22.871Z,4.20
2017-06-27T00:06:50.351Z,3.90
2017-06-27T00:09:18.599Z,3.43
2017-06-27T00:11:46.633Z,2.80
2017-06-27T00:14:14.110Z,3.40
2017-06-27T00:16:41.607Z,3.10
2017-06-27T00:19:09.089Z,3.33
2017-06-27T00:21:36.943Z,2.90
2017-06-27T00:24:05.208Z,3.20
2017-06-27T00:26:32.686Z,3.10
2017-06-27T00:29:00.959Z,3.10
2017-06-27T00:31:29.202Z,3.23
2017-06-27T00:33:56.711Z,3.50
2017-06-27T00:36:24.199Z,4.73
2017-06-27T00:38:52.014Z,3.17
2017-06-27T00:41:19.492Z,4.20
2017-06-27T00:43:46.979Z,3.43
2017-06-27T00:46:14.477Z,3.73
2017-06-27T00:48:41.951Z,3.00
2017-06-27T00:51:09.723Z,2.60
2017-06-27T00:53:37.966Z,2.90
2017-06-27T00:56:05.451Z,4.10
2017-06-27T00:58:33.723Z,4.70
2017-06-27T01:01:01.208Z,4.97
2017-06-27T01:03:29.055Z,4.20
2017-06-27T01:05:57.348Z,4.23
2017-06-27T01:08:24.834Z,4.63
2017-06-27T01:10:52.331Z,3.70
2017-06-27T01:13:19.808Z,3.73
2017-06-27T01:15:48.391Z,5.13
2017-06-27T01:18:16.639Z,4.03
2017-06-27T01:20:44.119Z,4.30
2017-06-27T01:23:11.618Z,4.70
2017-06-27T01:25:39.099Z,4.20
2017-06-27T01:28:06.888Z,3.90
2017-06-27T01:30:34.364Z,3.57
2017-06-27T01:33:01.835Z,4.97
2017-06-27T01:35:30.104Z,3.73
2017-06-27T01:37:58.346Z,4.33
2017-06-27T01:40:26.151Z,5.53
2017-06-27T01:42:53.636Z,6.40
2017-06-27T01:45:21.127Z,6.10
2017-06-27T01:47:48.623Z,6.00
2017-06-27T01:50:16.875Z,5.40
2017-06-27T01:52:44.374Z,5.07
2017-06-27T01:55:11.857Z,4.87
2017-06-27T01:57:39.692Z,5.27
2017-06-27T02:00:07.172Z,4.73
2017-06-27T02:02:34.652Z,4.37
2017-06-27T02:05:02.147Z,5.03
2017-06-27T02:07:29.623Z,4.93
2017-06-27T02:09:57.891Z,5.23
2017-06-27T02:12:25.370Z,5.00
2017-06-27T02:14:53.227Z,4.70
2017-06-27T02:17:21.475Z,6.17
2017-06-27T02:19:48.950Z,6.30
2017-06-27T02:22:16.451Z,5.60
2017-06-27T02:24:43.943Z,5.30
2017-06-27T02:27:11.442Z,5.70
2017-06-27T02:29:38.924Z,5.03
2017-06-27T02:32:06.703Z,6.07
2017-06-27T02:34:34.193Z,6.03
2017-06-27T02:37:01.676Z,5.90
2017-06-27T02:39:29.951Z,6.63
2017-06-27T02:41:58.202Z,6.17
2017-06-27T02:44:25.698Z,6.97
2017-06-27T02:46:54.003Z,7.47
2017-06-27T02:49:21.759Z,7.40
2017-06-27T02:51:49.250Z,7.73
2017-06-27T02:54:16.747Z,7.57
2017-06-27T02:56:44.263Z,6.73
2017-06-27T02:59:11.747Z,8.20
2017-06-27T03:01:39.495Z,7.37
2017-06-27T03:04:06.988Z,7.40
2017-06-27T03:06:35.243Z,7.30
2017-06-27T03:09:02.734Z,7.00
2017-06-27T03:11:30.246Z,7.83
2017-06-27T03:13:58.576Z,8.67
2017-06-27T03:16:26.826Z,7.27
2017-06-27T03:18:54.620Z,7.50
2017-06-27T03:21:22.867Z,6.40
2017-06-27T03:23:50.359Z,7.20
2017-06-27T03:26:17.870Z,7.03
2017-06-27T03:28:45.356Z,6.67
2017-06-27T03:31:13.141Z,8.10
2017-06-27T03:33:40.619Z,6.00
2017-06-27T03:36:08.104Z,6.27
2017-06-27T03:38:35.613Z,6.47
2017-06-27T03:41:03.855Z,7.00
2017-06-27T03:43:31.656Z,8.00
2017-06-27T03:45:59.911Z,7.37
2017-06-27T03:48:27.395Z,6.40
2017-06-27T03:50:55.662Z,7.13
2017-06-27T03:53:23.912Z,6.50
2017-06-27T03:55:51.711Z,6.40
2017-06-27T03:58:19.960Z,6.77
2017-06-27T04:00:47.443Z,7.00
2017-06-27T04:03:15.748Z,7.10
2017-06-27T04:05:43.231Z,6.87
2017-06-27T04:08:11.021Z,7.00
2017-06-27T04:10:38.505Z,7.33
2017-06-27T04:13:06.770Z,7.00
2017-06-27T04:15:35.039Z,6.60
2017-06-27T04:18:02.515Z,7.13
2017-06-27T04:20:30.379Z,7.73
2017-06-27T04:22:57.863Z,6.90
2017-06-27T04:25:25.345Z,7.10
2017-06-27T04:27:52.851Z,7.50
2017-06-27T04:30:21.107Z,5.63
2017-06-27T04:32:49.011Z,5.83
2017-06-27T04:35:17.262Z,5.90
2017-06-27T04:37:44.744Z,4.50
2017-06-27T04:40:13.019Z,4.70
2017-06-27T04:42:41.263Z,4.67
2017-06-27T04:45:09.167Z,4.27
2017-06-27T04:47:37.415Z,3.87
2017-06-27T04:50:04.904Z,4.00
2017-06-27T04:52:32.407Z,3.13
2017-06-27T04:54:59.895Z,4.40
2017-06-27T04:57:27.685Z,3.97
2017-06-27T04:59:55.186Z,3.03
2017-06-27T05:02:22.688Z,2.80
2017-06-27T05:04:50.208Z,3.23
2017-06-27T05:07:17.703Z,3.10
2017-06-27T05:09:45.454Z,3.10
2017-06-27T05:12:12.933Z,3.23
2017-06-27T05:14:40.415Z,3.37
2017-06-27T05:17:07.919Z,3.00
2017-06-27T05:19:35.398Z,3.40
2017-06-27T05:22:02.907Z,4.30
2017-06-27T05:24:30.395Z,3.50
2017-06-27T05:26:58.187Z,3.77
2017-06-27T05:29:25.672Z,3.80
2017-06-27T05:31:53.160Z,3.93
2017-06-27T05:34:20.667Z,3.50
2017-06-27T05:36:48.148Z,3.80
2017-06-27T05:39:16.416Z,3.63
2017-06-27T05:41:44.678Z,3.63
2017-06-27T05:44:12.464Z,3.20
2017-06-27T05:46:40.711Z,4.03
2017-06-27T05:49:08.196Z,3.50
2017-06-27T05:51:36.458Z,4.30
2017-06-27T05:54:03.946Z,3.97
2017-06-27T05:56:31.802Z,3.27
2017-06-27T05:59:00.060Z,3.53
2017-06-27T06:01:27.540Z,3.70
2017-06-27T06:03:55.799Z,3.43
2017-06-27T06:06:23.281Z,3.60
2017-06-27T06:08:50.795Z,4.07
2017-06-27T06:11:18.276Z,3.70
2017-06-27T06:13:46.022Z,4.37
2017-06-27T06:16:13.500Z,2.63
2017-06-27T06:18:41.756Z,3.87
2017-06-27T06:21:09.275Z,5.27
2017-06-27T06:23:36.758Z,3.97
2017-06-27T06:26:04.263Z,4.07
2017-06-27T06:28:32.516Z,4.40
2017-06-27T06:31:00.418Z,3.07
2017-06-27T06:33:28.135Z,2.97
2017-06-27T06:35:56.531Z,3.73
2017-06-27T06:38:24.031Z,3.47
2017-06-27T06:40:51.514Z,3.20
2017-06-27T06:43:19.345Z,2.53
2017-06-27T06:45:47.588Z,3.00
2017-06-27T06:48:15.079Z,2.90
2017-06-27T06:50:43.385Z,2.57
2017-06-27T06:53:10.867Z,2.50
2017-06-27T06:55:38.791Z,2.23
2017-06-27T06:58:06.283Z,2.10
2017-06-27T07:00:33.763Z,2.50
2017-06-27T07:03:01.262Z,1.87
2017-06-27T07:05:28.748Z,3.17
2017-06-27T07:07:56.588Z,1.97
2017-06-27T07:10:24.079Z,2.10
2017-06-27T07:12:51.561Z,2.40
2017-06-27T07:15:19.065Z,2.40
2017-06-27T07:17:47.315Z,2.07
2017-06-27T07:20:15.083Z,2.90
2017-06-27T07:22:42.572Z,2.80
2017-06-27T07:25:10.055Z,2.13
2017-06-27T07:27:37.558Z,2.17
2017-06-27T07:30:05.039Z,1.87
2017-06-27T07:32:33.628Z,1.53
2017-06-27T07:35:01.887Z,1.63
2017-06-27T07:37:29.372Z,1.60
2017-06-27T07:39:56.875Z,2.20
2017-06-27T07:42:24.362Z,2.50
2017-06-27T07:44:52.145Z,2.10
2017-06-27T07:47:19.640Z,2.10
2017-06-27T07:49:47.123Z,2.30
2017-06-27T07:52:14.624Z,2.30
2017-06-27T07:54:42.872Z,2.17
2017-06-27T07:57:10.632Z,2.43
2017-06-27T07:59:38.119Z,2.20
2017-06-27T08:02:06.387Z,2.60
2017-06-27T08:04:34.664Z,2.70
2017-06-27T08:07:02.152Z,2.30
2017-06-27T08:09:30.098Z,2.40
2017-06-27T08:11:58.358Z,2.30
2017-06-27T08:14:25.843Z,2.23
2017-06-27T08:16:54.112Z,2.57
2017-06-27T08:19:22.367Z,2.60
2017-06-27T08:21:50.159Z,2.80
2017-06-27T08:24:18.403Z,2.67
2017-06-27T08:26:45.892Z,2.70
2017-06-27T08:29:14.162Z,2.30
2017-06-27T08:31:42.412Z,3.00
2017-06-27T08:34:10.319Z,2.77
2017-06-27T08:36:38.572Z,2.83
2017-06-27T08:39:06.056Z,2.10
2017-06-27T08:41:34.324Z,2.70
2017-06-27T08:44:02.575Z,3.30
2017-06-27T08:46:30.372Z,3.00
2017-06-27T08:48:58.623Z,2.50
2017-06-27T08:51:26.111Z,2.33
2017-06-27T08:53:54.380Z,2.70
2017-06-27T08:56:21.879Z,2.63
2017-06-27T08:58:49.725Z,2.73
2017-06-27T09:01:17.223Z,3.30
2017-06-27T09:03:44.704Z,2.70
2017-06-27T09:06:12.217Z,2.60
2017-06-27T09:08:39.699Z,2.90
2017-06-27T09:11:07.540Z,3.10
2017-06-27T09:13:35.023Z,3.20
2017-06-27T09:16:02.517Z,3.00
2017-06-27T09:18:30.023Z,2.57
2017-06-27T09:20:57.519Z,2.77
2017-06-27T09:23:25.027Z,2.37
2017-06-27T09:25:52.516Z,2.23
2017-06-27T09:28:20.323Z,2.47
2017-06-27T09:30:47.823Z,3.00
2017-06-27T09:33:15.325Z,2.57
2017-06-27T09:35:42.878Z,2.83
2017-06-27T09:38:10.371Z,3.00
2017-06-27T09:40:37.883Z,2.63
2017-06-27T09:43:05.371Z,2.80
2017-06-27T09:45:32.875Z,2.67
2017-06-27T09:48:00.407Z,2.87
2017-06-27T09:50:28.977Z,2.73
2017-06-27T09:52:56.472Z,2.90
2017-06-27T09:55:23.961Z,2.43
2017-06-27T09:57:51.463Z,3.07
2017-06-27T10:00:18.949Z,3.03
2017-06-27T10:02:46.736Z,3.00
2017-06-27T10:05:14.221Z,3.20
2017-06-27T10:07:41.713Z,3.27
2017-06-27T10:10:09.996Z,3.40
2017-06-27T10:12:38.249Z,2.87
2017-06-27T10:15:05.751Z,3.30
2017-06-27T10:17:33.239Z,3.00
2017-06-27T10:20:01.060Z,2.67
2017-06-27T10:22:28.542Z,2.97
2017-06-27T10:24:56.031Z,2.33
2017-06-27T10:27:23.532Z,3.00
2017-06-27T10:29:51.026Z,2.73
2017-06-27T10:32:18.850Z,2.77
2017-06-27T10:34:46.337Z,2.77
2017-06-27T10:37:13.828Z,3.23
2017-06-27T10:39:41.329Z,3.83
2017-06-27T10:42:08.811Z,3.00
2017-06-27T10:44:36.660Z,2.60
2017-06-27T10:47:04.912Z,2.50
2017-06-27T10:49:32.387Z,2.40
2017-06-27T10:51:59.886Z,2.57
2017-06-27T10:54:27.372Z,1.80
2017-06-27T10:56:55.128Z,1.80
2017-06-27T10:59:22.610Z,2.40
2017-06-27T11:01:50.105Z,2.30
2017-06-27T11:04:17.606Z,1.90
2017-06-27T11:06:45.088Z,2.33
2017-06-27T11:09:12.876Z,2.00
2017-06-27T11:11:41.141Z,1.90
2017-06-27T11:14:08.627Z,2.20
2017-06-27T11:16:36.127Z,3.20
2017-06-27T11:19:03.627Z,2.70
2017-06-27T11:21:32.159Z,2.47
2017-06-27T11:23:59.648Z,2.33
2017-06-27T11:26:27.135Z,2.83
2017-06-27T11:28:54.638Z,2.90
2017-06-27T11:31:22.133Z,3.00
2017-06-27T11:33:49.910Z,2.50
2017-06-27T11:36:18.170Z,2.60
2017-06-27T11:38:45.659Z,2.70
2017-06-27T11:41:13.165Z,2.70
2017-06-27T11:43:40.653Z,2.57
2017-06-27T11:46:08.441Z,3.27
2017-06-27T11:48:35.923Z,3.30
2017-06-27T11:51:03.420Z,2.93
2017-06-27T11:53:30.923Z,2.87
2017-06-27T11:55:58.415Z,2.90
2017-06-27T11:58:26.206Z,2.53
2017-06-27T12:01:05.497Z,2.53
2017-06-27T12:03:44.999Z,3.07
2017-06-27T12:06:17.161Z,3.40
2017-06-27T12:08:50.563Z,2.90
2017-06-27T12:11:18.039Z,2.90
2017-06-27T12:13:45.803Z,2.80
2017-06-27T12:16:14.065Z,3.10
2017-06-27T12:18:42.322Z,3.40
2017-06-27T12:21:09.823Z,3.33
2017-06-27T12:23:37.308Z,2.90
2017-06-27T12:26:05.144Z,3.90
2017-06-27T12:28:33.391Z,3.30
2017-06-27T12:31:00.879Z,3.13
2017-06-27T12:33:29.147Z,2.97
2017-06-27T12:35:57.400Z,3.30
2017-06-27T12:38:25.195Z,3.43
2017-06-27T12:40:53.440Z,3.40
2017-06-27T12:43:20.940Z,3.10
2017-06-27T12:45:48.447Z,4.00
2017-06-27T12:48:15.928Z,4.00
2017-06-27T12:50:43.729Z,3.87
2017-06-27T12:53:11.219Z,3.40
2017-06-27T12:55:38.703Z,3.23
2017-06-27T12:58:06.202Z,3.37
2017-06-27T13:00:33.692Z,4.20
2017-06-27T13:03:01.515Z,3.77
2017-06-27T13:05:29.007Z,4.60
2017-06-27T13:07:56.492Z,3.80
2017-06-27T13:10:23.995Z,3.80
2017-06-27T13:12:52.332Z,3.47
2017-06-27T13:15:20.141Z,3.40
2017-06-27T13:17:48.391Z,4.00
2017-06-27T13:20:15.880Z,3.33
2017-06-27T13:22:43.387Z,3.50
2017-06-27T13:25:10.871Z,4.03
2017-06-27T13:27:38.662Z,3.30
2017-06-27T13:30:06.155Z,3.73
2017-06-27T13:32:33.632Z,3.57
2017-06-27T13:35:01.140Z,3.30
2017-06-27T13:37:29.395Z,3.73
2017-06-27T13:39:57.389Z,3.73
2017-06-27T13:42:24.871Z,3.67
2017-06-27T13:44:52.350Z,3.67
2017-06-27T13:47:19.855Z,3.87
2017-06-27T13:49:48.113Z,3.30
2017-06-27T13:52:15.889Z,3.90
2017-06-27T13:54:44.150Z,3.50
2017-06-27T13:57:11.634Z,3.90
2017-06-27T13:59:39.903Z,3.43
2017-06-27T14:02:08.151Z,3.00
2017-06-27T14:04:35.944Z,3.03
2017-06-27T14:07:04.203Z,3.63
2017-06-27T14:09:31.683Z,3.37
2017-06-27T14:11:59.960Z,3.57
2017-06-27T14:14:27.447Z,3.23
2017-06-27T14:16:55.298Z,3.90
2017-06-27T14:19:23.554Z,3.93
2017-06-27T14:21:51.041Z,3.63
2017-06-27T14:24:18.548Z,4.00
2017-06-27T14:26:46.040Z,3.40
2017-06-27T14:29:14.640Z,3.50
2017-06-27T14:31:42.888Z,3.60
2017-06-27T14:34:10.380Z,4.00
2017-06-27T14:36:38.664Z,3.90
2017-06-27T14:39:06.195Z,3.90
2017-06-27T14:41:33.975Z,3.40
2017-06-27T14:44:01.456Z,3.80
2017-06-27T14:46:28.959Z,4.13
2017-06-27T14:48:56.479Z,3.60
2017-06-27T14:51:23.972Z,4.10
2017-06-27T14:53:51.783Z,4.00
2017-06-27T14:56:19.281Z,4.17
2017-06-27T14:58:46.765Z,3.83
2017-06-27T15:01:14.269Z,3.87
2017-06-27T15:03:41.769Z,3.57
2017-06-27T15:06:09.578Z,3.97
2017-06-27T15:08:37.828Z,3.83
2017-06-27T15:11:05.312Z,4.00
2017-06-27T15:13:33.583Z,3.87
2017-06-27T15:16:01.833Z,3.77
2017-06-27T15:18:29.644Z,3.60
2017-06-27T15:20:57.131Z,3.80
2017-06-27T15:23:24.620Z,4.00
2017-06-27T15:25:52.132Z,3.67
2017-06-27T15:28:19.624Z,3.87
2017-06-27T15:30:47.115Z,4.23
2017-06-27T15:33:15.384Z,4.10
2017-06-27T15:35:42.869Z,4.23
2017-06-27T15:38:10.351Z,4.67
2017-06-27T15:40:37.855Z,3.50
2017-06-27T15:43:05.345Z,3.80
2017-06-27T15:45:33.603Z,3.83
2017-06-27T15:48:01.105Z,4.30
2017-06-27T15:50:28.605Z,4.07
2017-06-27T15:52:56.113Z,4.20
2017-06-27T15:55:23.631Z,4.57
2017-06-27T15:57:51.116Z,4.50
2017-06-27T16:00:19.704Z,4.13
2017-06-27T16:02:47.947Z,4.03
2017-06-27T16:05:15.441Z,4.17
2017-06-27T16:07:42.961Z,4.87
2017-06-27T16:10:10.451Z,4.77
2017-06-27T16:12:39.052Z,4.70
2017-06-27T16:15:06.759Z,4.00
2017-06-27T16:17:34.238Z,4.67
2017-06-27T16:20:01.734Z,5.20
2017-06-27T16:22:29.220Z,5.00
2017-06-27T16:24:57.050Z,4.57
2017-06-27T16:27:24.539Z,4.63
2017-06-27T16:29:52.041Z,4.10
2017-06-27T16:32:19.830Z,4.83
2017-06-27T16:34:48.089Z,4.40
2017-06-27T16:37:15.575Z,3.80
2017-06-27T16:39:43.080Z,4.30
2017-06-27T16:42:10.576Z,3.50
2017-06-27T16:44:38.856Z,3.70
2017-06-27T16:47:07.113Z,4.07
2017-06-27T16:49:34.602Z,3.70
2017-06-27T16:52:02.113Z,4.07
2017-06-27T16:54:29.605Z,4.00
2017-06-27T16:56:57.880Z,4.27
2017-06-27T16:59:26.132Z,4.33
2017-06-27T17:01:53.619Z,4.43
2017-06-27T17:04:21.891Z,5.10
2017-06-27T17:06:49.380Z,4.90
2017-06-27T17:09:16.879Z,4.77
2017-06-27T17:11:44.384Z,5.20
2017-06-27T17:14:12.681Z,4.10
2017-06-27T17:16:40.176Z,4.57
2017-06-27T17:19:07.681Z,4.53
2017-06-27T17:21:35.193Z,5.30
2017-06-27T17:24:02.976Z,4.90
2017-06-27T17:26:30.475Z,4.33
2017-06-27T17:28:57.973Z,4.50
2017-06-27T17:31:25.759Z,4.33
2017-06-27T17:33:53.244Z,4.90
2017-06-27T17:36:21.500Z,4.30
2017-06-27T17:38:49.282Z,4.07
2017-06-27T17:41:16.774Z,4.90
2017-06-27T17:43:44.267Z,4.93
2017-06-27T17:46:12.040Z,4.40
2017-06-27T17:48:39.527Z,4.27
2017-06-27T17:51:07.787Z,5.07
2017-06-27T17:53:35.301Z,4.80
2017-06-27T17:56:02.956Z,4.43
2017-06-27T17:58:30.745Z,4.07
2017-06-27T18:00:58.232Z,5.50
2017-06-27T18:03:25.720Z,5.27
2017-06-27T18:05:53.592Z,4.90
2017-06-27T18:08:21.097Z,4.20
2017-06-27T18:10:48.583Z,5.30
2017-06-27T18:13:17.185Z,5.50
2017-06-27T18:15:45.438Z,9.67
2017-06-27T18:18:12.932Z,6.40
2017-06-27T18:20:40.449Z,11.50
2017-06-27T18:23:07.940Z,8.20
2017-06-27T18:25:35.813Z,8.07
2017-06-27T18:28:03.316Z,7.63
2017-06-27T18:30:30.839Z,8.00
2017-06-27T18:32:58.357Z,8.50
2017-06-27T18:35:25.848Z,6.80
2017-06-27T18:37:53.361Z,6.20
2017-06-27T18:40:20.860Z,6.20
2017-06-27T18:42:49.439Z,7.33
2017-06-27T18:45:17.701Z,6.43
2017-06-27T18:47:45.187Z,7.83
2017-06-27T18:50:12.695Z,7.50
2017-06-27T18:52:40.187Z,7.40
2017-06-27T18:55:08.792Z,8.57
2017-06-27T18:57:36.279Z,8.40
2017-06-27T19:00:03.764Z,8.20
2017-06-27T19:02:31.272Z,8.83
2017-06-27T19:04:58.791Z,9.67
2017-06-27T19:07:26.587Z,7.87
2017-06-27T19:09:54.853Z,7.97
2017-06-27T19:12:23.125Z,8.30
2017-06-27T19:14:50.642Z,10.00
2017-06-27T19:17:18.129Z,9.30
2017-06-27T19:19:45.931Z,8.40
2017-06-27T19:22:13.428Z,9.20
2017-06-27T19:24:41.061Z,8.40
2017-06-27T19:27:08.763Z,9.80
2017-06-27T19:29:36.345Z,9.33
2017-06-27T19:32:03.990Z,9.80
2017-06-27T19:34:31.500Z,9.33
2017-06-27T19:36:59.287Z,8.77
2017-06-27T19:39:27.221Z,10.10
2017-06-27T19:41:54.846Z,9.27
2017-06-27T19:44:22.476Z,9.70
2017-06-27T19:46:50.341Z,10.00
2017-06-27T19:49:17.897Z,8.40
2017-06-27T19:51:45.391Z,9.20
2017-06-27T19:54:13.293Z,9.00
2017-06-27T19:56:40.816Z,10.27
2017-06-27T19:59:08.588Z,10.87
2017-06-27T20:01:36.144Z,9.57
2017-06-27T20:04:03.649Z,10.47
2017-06-27T20:06:31.170Z,10.23
2017-06-27T20:08:58.742Z,9.60
2017-06-27T20:11:26.602Z,10.13
2017-06-27T20:13:54.088Z,9.60
2017-06-27T20:16:22.340Z,9.03
2017-06-27T20:18:49.851Z,9.17
2017-06-27T20:21:17.351Z,10.93
2017-06-27T20:23:45.162Z,10.70
2017-06-27T20:26:13.429Z,9.83
2017-06-27T20:28:41.768Z,10.50
2017-06-27T20:31:09.353Z,9.67
2017-06-27T20:33:36.884Z,9.23
2017-06-27T20:36:04.684Z,9.30
2017-06-27T20:38:32.180Z,10.53
2017-06-27T20:40:59.669Z,9.10
2017-06-27T20:43:27.183Z,10.07
2017-06-27T20:45:55.435Z,9.77
2017-06-27T20:48:23.225Z,9.27
2017-06-27T20:50:51.499Z,10.67
2017-06-27T20:53:19.752Z,9.83
2017-06-27T20:55:47.259Z,10.17
2017-06-27T20:58:14.756Z,10.50
2017-06-27T21:00:42.565Z,11.90
2017-06-27T21:03:10.819Z,10.83
2017-06-27T21:05:38.304Z,9.70
2017-06-27T21:08:05.835Z,9.03
2017-06-27T21:10:33.332Z,10.10
2017-06-27T21:13:00.843Z,9.33
2017-06-27T21:15:28.341Z,9.27
2017-06-27T21:17:56.203Z,10.17
2017-06-27T21:20:23.691Z,9.27
2017-06-27T21:22:51.183Z,8.90
2017-06-27T21:25:18.697Z,8.57
2017-06-27T21:27:46.191Z,8.20
2017-06-27T21:30:13.713Z,8.53
2017-06-27T21:32:41.212Z,8.80
2017-06-27T21:35:09.000Z,8.27
2017-06-27T21:37:36.496Z,8.10
2017-06-27T21:40:03.987Z,8.80
2017-06-27T21:42:31.491Z,8.83
2017-06-27T21:44:58.990Z,8.50
2017-06-27T21:47:26.496Z,7.40
2017-06-27T21:49:53.991Z,7.97
2017-06-27T21:52:21.789Z,8.70
2017-06-27T21:54:49.283Z,8.00
2017-06-27T21:57:16.775Z,8.50
2017-06-27T21:59:44.284Z,9.57
2017-06-27T22:02:11.784Z,8.10
2017-06-27T22:04:40.060Z,8.20
2017-06-27T22:07:08.322Z,8.80
2017-06-27T22:09:36.879Z,8.90
2017-06-27T22:12:04.375Z,8.90
2017-06-27T22:14:32.634Z,8.60
2017-06-27T22:17:00.140Z,7.83
2017-06-27T22:19:27.631Z,7.80
2017-06-27T22:21:55.143Z,8.23
2017-06-27T22:24:22.638Z,8.43
2017-06-27T22:26:50.459Z,7.77
2017-06-27T22:29:18.711Z,7.90
2017-06-27T22:31:46.197Z,8.20
2017-06-27T22:34:13.709Z,7.90
2017-06-27T22:36:41.204Z,8.43
2017-06-27T22:39:09.796Z,8.37
2017-06-27T22:41:38.052Z,8.20
2017-06-27T22:44:05.553Z,8.93
2017-06-27T22:46:33.063Z,8.40
2017-06-27T22:49:00.561Z,8.07
2017-06-27T22:51:28.067Z,8.20
2017-06-27T22:53:55.775Z,8.20
2017-06-27T22:56:23.547Z,7.50
2017-06-27T22:58:51.055Z,7.77
2017-06-27T23:01:18.537Z,8.30
2017-06-27T23:03:46.064Z,7.80
2017-06-27T23:06:13.553Z,7.50
2017-06-27T23:08:41.130Z,8.17
2017-06-27T23:11:09.383Z,7.90
2017-06-27T23:13:36.899Z,7.70
2017-06-27T23:16:04.398Z,7.63
2017-06-27T23:18:31.914Z,7.47
2017-06-27T23:20:59.403Z,7.60
2017-06-27T23:23:26.907Z,7.60
2017-06-27T23:25:55.156Z,7.17
2017-06-27T23:28:22.665Z,8.43
2017-06-27T23:30:50.153Z,7.80
2017-06-27T23:33:17.660Z,8.97
2017-06-27T23:35:45.159Z,8.10
2017-06-27T23:38:13.444Z,7.97
2017-06-27T23:40:40.931Z,7.57
2017-06-27T23:43:08.434Z,7.37
2017-06-27T23:45:35.928Z,6.83
2017-06-27T23:48:03.436Z,6.93
2017-06-27T23:50:31.700Z,7.30
2017-06-27T23:52:59.208Z,7.07
2017-06-27T23:55:26.694Z,7.20
2017-06-27T23:57:54.204Z,7.07
